sensor_id;sensor_type;location;lat;lon;timestamp;P1;durP1;ratioP1;P2;durP2;ratioP2
6452;SDS011;3259;51.080;13.712;2023-02-15T02:41:55;0.40;;;0.40;;
6452;SDS011;3259;51.080;13.712;2023-02-15T02:45:32;0.63;;;0.63;;
6452;SDS011;3259;51.080;13.712;2023-02-15T02:48:50;0.70;;;0.70;;
6452;SDS011;3259;51.080;13.712;2023-02-15T02:51:43;1.17;;;0.50;;
6452;SDS011;3259;51.080;13.712;2023-02-15T03:37:24;0.40;;;0.40;;
6452;SDS011;3259;51.080;13.712;2023-02-15T03:40:49;1.20;;;0.63;;
6452;SDS011;3259;51.080;13.712;2023-02-15T03:44:11;0.70;;;0.70;;
6452;SDS011;3259;51.080;13.712;2023-02-15T03:47:51;0.52;;;0.40;;
6452;SDS011;3259;51.080;13.712;2023-02-15T06:08:13;1.33;;;0.73;;
6452;SDS011;3259;51.080;13.712;2023-02-15T06:11:06;3.78;;;1.70;;
6452;SDS011;3259;51.080;13.712;2023-02-15T06:18:55;3.28;;;1.75;;
6452;SDS011;3259;51.080;13.712;2023-02-15T06:22:26;4.97;;;1.33;;
6452;SDS011;3259;51.080;13.712;2023-02-15T17:44:53;12.23;;;5.30;;
6452;SDS011;3259;51.080;13.712;2023-02-15T17:47:42;8.52;;;4.97;;
6452;SDS011;3259;51.080;13.712;2023-02-15T17:50:32;13.80;;;5.22;;
6452;SDS011;3259;51.080;13.712;2023-02-15T17:53:24;11.57;;;6.45;;
6452;SDS011;3259;51.080;13.712;2023-02-15T17:56:16;20.65;;;8.48;;
6452;SDS011;3259;51.080;13.712;2023-02-15T17:59:18;41.20;;;19.48;;
6452;SDS011;3259;51.080;13.712;2023-02-15T18:02:12;37.35;;;20.00;;
6452;SDS011;3259;51.080;13.712;2023-02-15T18:05:30;49.65;;;22.13;;
6452;SDS011;3259;51.080;13.712;2023-02-15T18:08:36;49.17;;;22.90;;
6452;SDS011;3259;51.080;13.712;2023-02-15T18:11:42;50.50;;;23.45;;
6452;SDS011;3259;51.080;13.712;2023-02-15T18:14:34;51.30;;;25.30;;
6452;SDS011;3259;51.080;13.712;2023-02-15T18:17:25;52.17;;;24.80;;
6452;SDS011;3259;51.080;13.712;2023-02-15T18:20:17;59.33;;;24.85;;
6452;SDS011;3259;51.080;13.712;2023-02-15T18:23:07;54.53;;;25.35;;
6452;SDS011;3259;51.080;13.712;2023-02-15T18:25:57;52.55;;;24.13;;
6452;SDS011;3259;51.080;13.712;2023-02-15T18:28:46;46.92;;;23.05;;
6452;SDS011;3259;51.080;13.712;2023-02-15T18:31:35;47.15;;;23.92;;
6452;SDS011;3259;51.080;13.712;2023-02-15T18:34:27;49.30;;;24.77;;
6452;SDS011;3259;51.080;13.712;2023-02-15T18:37:18;53.20;;;23.88;;
6452;SDS011;3259;51.080;13.712;2023-02-15T18:40:13;45.70;;;21.58;;
6452;SDS011;3259;51.080;13.712;2023-02-15T18:43:03;36.88;;;20.20;;
6452;SDS011;3259;51.080;13.712;2023-02-15T18:45:52;39.50;;;20.25;;
6452;SDS011;3259;51.080;13.712;2023-02-15T18:48:41;40.25;;;19.02;;
6452;SDS011;3259;51.080;13.712;2023-02-15T18:51:35;40.65;;;19.88;;
6452;SDS011;3259;51.080;13.712;2023-02-15T18:54:25;34.10;;;18.58;;
6452;SDS011;3259;51.080;13.712;2023-02-15T18:57:14;38.92;;;17.70;;
6452;SDS011;3259;51.080;13.712;2023-02-15T19:00:05;38.33;;;17.98;;
6452;SDS011;3259;51.080;13.712;2023-02-15T19:02:58;34.97;;;17.52;;
6452;SDS011;3259;51.080;13.712;2023-02-15T19:05:48;29.35;;;16.15;;
6452;SDS011;3259;51.080;13.712;2023-02-15T19:08:39;30.65;;;14.82;;
6452;SDS011;3259;51.080;13.712;2023-02-15T19:11:29;35.33;;;16.92;;
6452;SDS011;3259;51.080;13.712;2023-02-15T19:14:22;31.85;;;15.40;;
6452;SDS011;3259;51.080;13.712;2023-02-15T19:17:18;30.77;;;14.27;;
6452;SDS011;3259;51.080;13.712;2023-02-15T19:20:14;24.50;;;14.32;;
6452;SDS011;3259;51.080;13.712;2023-02-15T19:23:04;25.98;;;13.73;;
6452;SDS011;3259;51.080;13.712;2023-02-15T19:25:56;21.65;;;13.35;;
6452;SDS011;3259;51.080;13.712;2023-02-15T19:28:44;25.45;;;13.60;;
6452;SDS011;3259;51.080;13.712;2023-02-15T19:31:34;28.67;;;12.65;;
6452;SDS011;3259;51.080;13.712;2023-02-15T19:58:33;18.25;;;9.93;;
6452;SDS011;3259;51.080;13.712;2023-02-15T21:08:24;9.02;;;5.30;;
6452;SDS011;3259;51.080;13.712;2023-02-15T21:11:18;6.20;;;4.82;;
6452;SDS011;3259;51.080;13.712;2023-02-15T21:15:24;5.97;;;4.10;;
6452;SDS011;3259;51.080;13.712;2023-02-15T21:18:46;11.85;;;4.47;;
6452;SDS011;3259;51.080;13.712;2023-02-15T21:21:35;11.50;;;4.40;;
6452;SDS011;3259;51.080;13.712;2023-02-15T21:24:26;5.80;;;4.18;;
6452;SDS011;3259;51.080;13.712;2023-02-15T21:27:24;11.40;;;5.10;;
6452;SDS011;3259;51.080;13.712;2023-02-15T21:30:28;15.63;;;4.35;;
6452;SDS011;3259;51.080;13.712;2023-02-15T21:33:17;9.45;;;4.65;;
6452;SDS011;3259;51.080;13.712;2023-02-15T21:36:08;6.88;;;4.22;;
6452;SDS011;3259;51.080;13.712;2023-02-15T21:39:02;7.50;;;4.38;;
6452;SDS011;3259;51.080;13.712;2023-02-15T21:41:53;8.00;;;3.67;;
6452;SDS011;3259;51.080;13.712;2023-02-15T21:45:00;8.82;;;3.88;;
6452;SDS011;3259;51.080;13.712;2023-02-15T21:48:06;7.20;;;3.88;;
6452;SDS011;3259;51.080;13.712;2023-02-15T21:50:55;6.25;;;4.05;;
6452;SDS011;3259;51.080;13.712;2023-02-15T21:54:02;7.35;;;4.10;;
6452;SDS011;3259;51.080;13.712;2023-02-15T21:56:52;7.40;;;3.78;;
6452;SDS011;3259;51.080;13.712;2023-02-15T21:59:43;4.47;;;3.22;;
6452;SDS011;3259;51.080;13.712;2023-02-15T22:02:34;5.53;;;3.35;;
6452;SDS011;3259;51.080;13.712;2023-02-15T22:05:32;4.05;;;3.20;;
6452;SDS011;3259;51.080;13.712;2023-02-15T22:08:21;6.30;;;3.78;;
6452;SDS011;3259;51.080;13.712;2023-02-15T22:11:10;4.20;;;2.97;;
6452;SDS011;3259;51.080;13.712;2023-02-15T22:14:01;9.10;;;3.58;;
6452;SDS011;3259;51.080;13.712;2023-02-15T22:16:51;5.20;;;3.80;;
6452;SDS011;3259;51.080;13.712;2023-02-15T22:19:40;5.25;;;3.63;;
6452;SDS011;3259;51.080;13.712;2023-02-15T22:22:29;5.25;;;3.13;;
6452;SDS011;3259;51.080;13.712;2023-02-15T22:25:20;5.55;;;3.10;;
6452;SDS011;3259;51.080;13.712;2023-02-15T22:28:11;7.82;;;3.53;;
6452;SDS011;3259;51.080;13.712;2023-02-15T22:31:04;5.03;;;2.55;;
6452;SDS011;3259;51.080;13.712;2023-02-15T22:33:54;4.22;;;2.88;;
6452;SDS011;3259;51.080;13.712;2023-02-15T22:36:46;2.95;;;2.63;;
6452;SDS011;3259;51.080;13.712;2023-02-15T22:39:35;7.03;;;3.38;;
6452;SDS011;3259;51.080;13.712;2023-02-15T22:42:25;3.38;;;2.63;;
6452;SDS011;3259;51.080;13.712;2023-02-15T22:45:16;3.30;;;2.75;;
6452;SDS011;3259;51.080;13.712;2023-02-15T22:48:08;3.25;;;2.28;;
6452;SDS011;3259;51.080;13.712;2023-02-15T22:51:00;4.50;;;3.17;;
6452;SDS011;3259;51.080;13.712;2023-02-15T22:53:49;4.88;;;3.17;;
6452;SDS011;3259;51.080;13.712;2023-02-15T22:56:43;3.55;;;3.08;;
6452;SDS011;3259;51.080;13.712;2023-02-15T22:59:34;4.15;;;2.60;;
6452;SDS011;3259;51.080;13.712;2023-02-15T23:02:23;3.30;;;2.83;;
6452;SDS011;3259;51.080;13.712;2023-02-15T23:05:18;3.70;;;2.50;;
6452;SDS011;3259;51.080;13.712;2023-02-15T23:08:08;5.07;;;2.53;;
6452;SDS011;3259;51.080;13.712;2023-02-15T23:10:58;4.18;;;2.80;;
6452;SDS011;3259;51.080;13.712;2023-02-15T23:13:47;2.50;;;2.30;;
6452;SDS011;3259;51.080;13.712;2023-02-15T23:16:36;4.35;;;2.78;;
6452;SDS011;3259;51.080;13.712;2023-02-15T23:19:25;3.63;;;2.67;;
6452;SDS011;3259;51.080;13.712;2023-02-15T23:22:16;2.47;;;1.80;;
6452;SDS011;3259;51.080;13.712;2023-02-15T23:25:07;2.45;;;2.28;;
6452;SDS011;3259;51.080;13.712;2023-02-15T23:27:57;3.75;;;2.25;;
6452;SDS011;3259;51.080;13.712;2023-02-15T23:30:46;1.95;;;1.85;;
6452;SDS011;3259;51.080;13.712;2023-02-15T23:33:35;2.83;;;2.28;;
6452;SDS011;3259;51.080;13.712;2023-02-15T23:36:26;2.53;;;1.98;;
6452;SDS011;3259;51.080;13.712;2023-02-15T23:39:18;2.72;;;2.33;;
6452;SDS011;3259;51.080;13.712;2023-02-15T23:42:27;1.98;;;1.88;;
6452;SDS011;3259;51.080;13.712;2023-02-15T23:45:17;2.70;;;1.90;;
6452;SDS011;3259;51.080;13.712;2023-02-15T23:48:12;2.28;;;2.00;;
6452;SDS011;3259;51.080;13.712;2023-02-15T23:51:19;2.08;;;1.88;;
6452;SDS011;3259;51.080;13.712;2023-02-15T23:54:10;1.85;;;1.58;;
6452;SDS011;3259;51.080;13.712;2023-02-15T23:57:00;2.03;;;1.70;;
6452;SDS011;3259;51.080;13.712;2023-02-15T23:59:49;1.58;;;1.48;;
